createdAt,value
2022-08-19T00:02:03.086Z,21.41
2022-08-19T00:04:33.408Z,21.44
2022-08-19T00:07:07.619Z,21.45
2022-08-19T00:09:34.376Z,21.45
2022-08-19T00:12:01.296Z,21.46
2022-08-19T00:14:28.802Z,21.46
2022-08-19T00:16:55.811Z,21.44
2022-08-19T00:19:23.811Z,21.44
2022-08-19T00:21:51.131Z,21.41
2022-08-19T00:24:20.167Z,21.40
2022-08-19T00:26:46.772Z,21.36
2022-08-19T00:29:20.236Z,21.34
2022-08-19T00:31:47.349Z,21.34
2022-08-19T00:34:15.541Z,21.32
2022-08-19T00:36:43.361Z,21.30
2022-08-19T00:39:10.619Z,21.30
2022-08-19T00:41:37.134Z,21.26
2022-08-19T00:44:09.498Z,21.29
2022-08-19T00:46:39.131Z,21.29
2022-08-19T00:49:20.655Z,21.29
2022-08-19T00:51:54.514Z,21.29
2022-08-19T00:54:31.234Z,21.27
2022-08-19T00:57:00.286Z,21.23
2022-08-19T01:00:01.128Z,21.19
2022-08-19T01:02:24.697Z,21.19
2022-08-19T01:04:51.148Z,21.15
2022-08-19T01:07:27.726Z,21.14
2022-08-19T01:09:54.823Z,21.13
2022-08-19T01:12:24.290Z,21.14
2022-08-19T01:14:51.498Z,21.13
2022-08-19T01:17:20.026Z,21.10
2022-08-19T01:19:48.486Z,21.10
2022-08-19T01:22:31.534Z,21.08
2022-08-19T01:24:59.675Z,21.10
2022-08-19T01:27:26.415Z,21.11
2022-08-19T01:29:58.365Z,21.09
2022-08-19T01:32:33.411Z,21.08
2022-08-19T01:35:02.919Z,21.09
2022-08-19T01:37:29.944Z,21.11
2022-08-19T01:39:56.563Z,21.10
2022-08-19T01:42:30.422Z,21.12
2022-08-19T01:44:57.940Z,21.11
2022-08-19T01:47:24.469Z,21.13
2022-08-19T01:49:50.884Z,21.13
2022-08-19T01:52:17.365Z,21.13
2022-08-19T01:54:43.800Z,21.12
2022-08-19T01:57:13.526Z,21.07
2022-08-19T01:59:48.732Z,21.04
2022-08-19T02:02:18.416Z,21.01
2022-08-19T02:04:48.020Z,20.99
2022-08-19T02:07:24.943Z,20.96
2022-08-19T02:09:54.861Z,20.95
2022-08-19T02:12:23.810Z,20.93
2022-08-19T02:14:52.539Z,20.87
2022-08-19T02:17:19.297Z,20.88
2022-08-19T02:19:45.776Z,20.82
2022-08-19T02:22:12.233Z,20.81
2022-08-19T02:24:45.734Z,20.75
2022-08-19T02:27:12.192Z,20.74
2022-08-19T02:29:38.757Z,20.77
2022-08-19T02:32:06.583Z,20.75
2022-08-19T02:34:33.154Z,20.74
2022-08-19T02:37:03.502Z,20.74
2022-08-19T02:39:36.778Z,20.77
2022-08-19T02:42:03.325Z,20.77
2022-08-19T02:44:31.998Z,20.79
2022-08-19T02:46:58.759Z,20.82
2022-08-19T02:49:29.715Z,20.82
2022-08-19T02:52:07.752Z,20.84
2022-08-19T02:54:34.501Z,20.83
2022-08-19T02:57:00.938Z,20.79
2022-08-19T02:59:31.306Z,20.83
2022-08-19T03:01:57.748Z,20.84
2022-08-19T03:04:25.252Z,20.84
2022-08-19T03:06:53.978Z,20.82
2022-08-19T03:09:27.315Z,20.82
2022-08-19T03:11:57.806Z,20.79
2022-08-19T03:14:24.207Z,20.78
2022-08-19T03:16:52.928Z,20.79
2022-08-19T03:19:22.144Z,20.76
2022-08-19T03:21:48.843Z,20.74
2022-08-19T03:24:19.685Z,20.76
2022-08-19T03:26:59.802Z,20.71
2022-08-19T03:29:32.548Z,20.70
2022-08-19T03:32:04.816Z,20.71
2022-08-19T03:34:36.377Z,20.66
2022-08-19T03:37:09.633Z,20.66
2022-08-19T03:39:38.598Z,20.67
2022-08-19T03:42:30.234Z,20.61
2022-08-19T03:44:59.797Z,20.56
2022-08-19T03:47:26.507Z,20.56
2022-08-19T03:49:53.008Z,20.52
2022-08-19T03:52:27.792Z,20.49
2022-08-19T03:54:54.293Z,20.49
2022-08-19T03:57:31.957Z,20.47
2022-08-19T04:00:03.912Z,20.47
2022-08-19T04:02:57.989Z,20.46
2022-08-19T04:05:29.565Z,20.47
2022-08-19T04:08:13.762Z,20.46
2022-08-19T04:10:41.488Z,20.45
2022-08-19T04:13:14.825Z,20.47
2022-08-19T04:15:42.993Z,20.49
2022-08-19T04:18:12.038Z,20.48
2022-08-19T04:20:51.901Z,20.51
2022-08-19T04:23:25.821Z,20.50
2022-08-19T04:25:52.396Z,20.49
2022-08-19T04:28:18.797Z,20.48
2022-08-19T04:30:51.332Z,20.43
2022-08-19T04:33:26.481Z,20.41
2022-08-19T04:35:59.258Z,20.27
2022-08-19T04:38:25.756Z,20.23
2022-08-19T04:41:11.113Z,20.16
2022-08-19T04:43:40.318Z,20.20
2022-08-19T04:46:11.386Z,20.22
2022-08-19T04:49:10.447Z,20.21
2022-08-19T04:51:45.272Z,20.21
2022-08-19T04:54:11.708Z,20.26
2022-08-19T04:56:41.346Z,20.26
2022-08-19T04:59:17.864Z,20.30
2022-08-19T05:01:44.405Z,20.34
2022-08-19T05:04:10.815Z,20.39
2022-08-19T05:06:39.823Z,20.40
2022-08-19T05:09:13.010Z,20.42
2022-08-19T05:11:40.014Z,20.44
2022-08-19T05:14:15.870Z,20.47
2022-08-19T05:16:42.385Z,20.51
2022-08-19T05:19:27.512Z,20.55
2022-08-19T05:22:13.197Z,20.55
2022-08-19T05:25:02.368Z,20.56
2022-08-19T05:27:29.183Z,20.62
2022-08-19T05:30:08.876Z,20.61
2022-08-19T05:32:35.546Z,20.66
2022-08-19T05:35:02.030Z,20.66
2022-08-19T05:37:28.629Z,20.70
2022-08-19T05:39:55.760Z,20.69
2022-08-19T05:42:23.810Z,20.69
2022-08-19T05:44:52.842Z,20.76
2022-08-19T05:47:23.019Z,20.74
2022-08-19T05:49:51.325Z,20.76
2022-08-19T05:52:19.336Z,20.78
2022-08-19T05:54:51.114Z,20.81
2022-08-19T05:57:20.080Z,20.84
2022-08-19T05:59:57.618Z,20.88
2022-08-19T06:02:24.873Z,20.91
2022-08-19T06:04:51.380Z,20.96
2022-08-19T06:07:25.514Z,20.96
2022-08-19T06:10:00.998Z,21.00
2022-08-19T06:12:35.986Z,21.06
2022-08-19T06:15:09.858Z,21.08
2022-08-19T06:17:39.209Z,21.10
2022-08-19T06:20:09.687Z,21.12
2022-08-19T06:22:44.115Z,21.17
2022-08-19T06:25:12.170Z,21.19
2022-08-19T06:27:58.678Z,21.22
2022-08-19T06:30:29.094Z,21.26
2022-08-19T06:32:55.554Z,21.29
2022-08-19T06:35:22.111Z,21.33
2022-08-19T06:37:58.025Z,21.36
2022-08-19T06:40:28.393Z,21.42
2022-08-19T06:42:55.966Z,21.46
2022-08-19T06:45:34.396Z,21.53
2022-08-19T06:48:08.935Z,21.62
2022-08-19T06:50:39.462Z,21.66
2022-08-19T06:53:09.935Z,21.75
2022-08-19T06:55:36.440Z,21.79
2022-08-19T06:58:04.678Z,21.87
2022-08-19T07:03:06.293Z,21.98
2022-08-19T07:05:45.308Z,22.04
2022-08-19T07:08:35.049Z,22.08
2022-08-19T07:11:09.355Z,22.11
2022-08-19T07:13:38.652Z,22.17
2022-08-19T07:16:06.933Z,22.26
2022-08-19T07:18:38.856Z,22.32
2022-08-19T07:21:17.543Z,22.34
2022-08-19T07:23:44.794Z,22.40
2022-08-19T07:26:20.620Z,22.46
2022-08-19T07:28:55.935Z,22.54
2022-08-19T07:31:26.396Z,22.54
2022-08-19T07:34:00.257Z,22.58
2022-08-19T07:36:33.200Z,22.62
2022-08-19T07:39:02.501Z,22.65
2022-08-19T07:41:32.256Z,22.65
2022-08-19T07:44:04.450Z,22.64
2022-08-19T07:46:34.655Z,22.65
2022-08-19T07:49:01.711Z,22.63
2022-08-19T07:51:36.747Z,22.65
2022-08-19T07:54:04.672Z,22.68
2022-08-19T07:56:34.995Z,22.72
2022-08-19T07:59:04.181Z,22.82
2022-08-19T08:01:30.629Z,22.81
2022-08-19T08:04:24.000Z,22.80
2022-08-19T08:07:13.193Z,22.81
2022-08-19T08:09:50.073Z,22.87
2022-08-19T08:12:34.107Z,22.95
2022-08-19T08:15:15.010Z,23.06
2022-08-19T08:17:49.066Z,23.17
2022-08-19T08:20:30.024Z,23.34
2022-08-19T08:23:15.184Z,23.55
2022-08-19T08:25:48.031Z,23.72
2022-08-19T08:28:17.510Z,23.82
2022-08-19T08:30:46.703Z,23.87
2022-08-19T08:35:53.021Z,24.15
2022-08-19T08:38:19.540Z,24.18
2022-08-19T08:40:50.881Z,24.30
2022-08-19T08:43:32.378Z,24.42
2022-08-19T08:46:09.316Z,24.50
2022-08-19T08:48:47.391Z,24.60
2022-08-19T08:52:00.193Z,24.77
2022-08-19T08:54:34.858Z,24.84
2022-08-19T08:57:12.027Z,25.07
2022-08-19T08:59:42.462Z,24.95
2022-08-19T09:02:17.047Z,24.92
2022-08-19T09:04:43.677Z,25.05
2022-08-19T09:08:09.053Z,25.16
2022-08-19T09:10:55.194Z,25.20
2022-08-19T09:13:46.850Z,25.37
2022-08-19T09:16:21.944Z,25.43
2022-08-19T09:19:00.164Z,25.65
2022-08-19T09:21:30.586Z,25.67
2022-08-19T09:24:00.386Z,25.81
2022-08-19T09:26:47.579Z,25.75
2022-08-19T09:29:19.206Z,25.66
2022-08-19T09:31:51.596Z,25.78
2022-08-19T09:34:20.658Z,25.97
2022-08-19T09:36:47.286Z,26.21
2022-08-19T09:39:16.208Z,26.27
2022-08-19T09:41:47.286Z,26.21
2022-08-19T09:44:15.387Z,26.20
2022-08-19T09:46:44.273Z,26.17
2022-08-19T09:49:10.719Z,26.17
2022-08-19T09:51:50.843Z,26.07
2022-08-19T09:54:19.225Z,26.13
2022-08-19T09:56:57.080Z,26.01
2022-08-19T09:59:23.774Z,26.29
2022-08-19T10:01:52.314Z,26.41
2022-08-19T10:04:20.239Z,26.37
2022-08-19T10:06:53.767Z,26.58
2022-08-19T10:09:33.848Z,26.60
2022-08-19T10:12:03.526Z,26.62
2022-08-19T10:14:36.186Z,26.66
2022-08-19T10:17:17.698Z,26.67
2022-08-19T10:19:55.743Z,26.74
2022-08-19T10:22:23.401Z,26.71
2022-08-19T10:24:59.109Z,26.81
2022-08-19T10:27:33.635Z,26.66
2022-08-19T10:30:09.879Z,26.55
2022-08-19T10:32:39.257Z,26.54
2022-08-19T10:35:21.958Z,26.79
2022-08-19T10:37:56.852Z,26.94
2022-08-19T10:40:23.667Z,27.04
2022-08-19T10:42:52.364Z,27.12
2022-08-19T10:45:18.897Z,26.87
2022-08-19T10:47:48.206Z,26.78
2022-08-19T10:50:33.635Z,26.82
2022-08-19T10:53:12.129Z,27.17
2022-08-19T10:55:56.906Z,27.21
2022-08-19T10:58:27.083Z,27.30
2022-08-19T11:00:56.114Z,27.48
2022-08-19T11:03:24.116Z,27.44
2022-08-19T11:06:06.378Z,27.73
2022-08-19T11:08:53.131Z,27.63
2022-08-19T11:11:19.673Z,27.53
2022-08-19T11:14:33.952Z,27.24
2022-08-19T11:17:08.356Z,27.12
2022-08-19T11:19:39.821Z,27.43
2022-08-19T11:22:21.037Z,27.66
2022-08-19T11:24:47.509Z,27.85
2022-08-19T11:27:21.381Z,27.80
2022-08-19T11:29:53.555Z,27.67
2022-08-19T11:32:32.383Z,27.77
2022-08-19T11:34:58.907Z,27.85
2022-08-19T11:37:25.501Z,27.95
2022-08-19T11:39:54.946Z,27.71
2022-08-19T11:42:39.977Z,27.87
2022-08-19T11:45:07.026Z,27.91
2022-08-19T11:47:35.095Z,27.92
2022-08-19T11:50:01.562Z,27.90
2022-08-19T11:52:28.081Z,27.73
2022-08-19T11:54:54.796Z,27.59
2022-08-19T11:57:21.216Z,27.59
2022-08-19T11:59:52.821Z,27.77
2022-08-19T12:02:20.094Z,27.64
2022-08-19T12:04:49.591Z,27.63
2022-08-19T12:07:23.414Z,27.88
2022-08-19T12:09:49.845Z,27.88
2022-08-19T12:12:18.827Z,27.76
2022-08-19T12:14:45.401Z,27.60
2022-08-19T12:17:14.254Z,27.58
2022-08-19T12:19:49.397Z,27.85
2022-08-19T12:22:15.950Z,28.24
2022-08-19T12:24:42.367Z,28.11
2022-08-19T12:27:12.852Z,27.96
2022-08-19T12:29:42.409Z,27.79
2022-08-19T12:32:10.367Z,27.61
2022-08-19T12:34:45.418Z,27.48
2022-08-19T12:37:14.421Z,27.47
2022-08-19T12:39:50.491Z,27.41
2022-08-19T12:42:19.598Z,27.34
2022-08-19T12:44:55.461Z,27.54
2022-08-19T12:47:23.054Z,27.54
2022-08-19T12:49:53.339Z,27.38
2022-08-19T12:52:23.875Z,27.33
2022-08-19T12:54:54.026Z,27.36
2022-08-19T12:57:32.062Z,27.48
2022-08-19T12:59:59.332Z,27.60
2022-08-19T13:02:25.828Z,27.84
2022-08-19T13:05:04.461Z,28.07
2022-08-19T13:07:33.946Z,28.47
2022-08-19T13:10:01.077Z,28.31
2022-08-19T13:12:37.532Z,28.38
2022-08-19T13:15:10.994Z,28.47
2022-08-19T13:17:39.274Z,28.47
2022-08-19T13:20:09.809Z,28.53
2022-08-19T13:22:37.610Z,28.66
2022-08-19T13:25:06.252Z,28.57
2022-08-19T13:27:35.485Z,28.47
2022-08-19T13:30:26.894Z,28.33
2022-08-19T13:33:11.699Z,28.41
2022-08-19T13:36:01.466Z,28.56
2022-08-19T13:38:35.479Z,28.66
2022-08-19T13:41:11.041Z,28.65
2022-08-19T13:43:47.491Z,28.73
2022-08-19T13:46:20.767Z,28.82
2022-08-19T13:48:58.519Z,28.86
2022-08-19T13:51:25.017Z,28.91
2022-08-19T13:53:51.633Z,29.05
2022-08-19T13:56:28.506Z,29.10
2022-08-19T13:58:55.014Z,29.02
2022-08-19T14:01:27.408Z,29.14
2022-08-19T14:03:56.067Z,29.17
2022-08-19T14:06:23.271Z,29.16
2022-08-19T14:08:49.842Z,29.06
2022-08-19T14:11:16.870Z,29.06
2022-08-19T14:13:51.986Z,29.06
2022-08-19T14:16:18.646Z,29.05
2022-08-19T14:18:45.647Z,29.07
2022-08-19T14:21:21.464Z,29.04
2022-08-19T14:23:48.236Z,29.06
2022-08-19T14:26:19.631Z,29.06
2022-08-19T14:28:46.590Z,29.16
2022-08-19T14:31:20.005Z,29.18
2022-08-19T14:33:50.285Z,29.30
2022-08-19T14:36:17.034Z,29.27
2022-08-19T14:38:44.210Z,29.34
2022-08-19T14:41:19.534Z,29.20
2022-08-19T14:43:48.372Z,29.19
2022-08-19T14:46:29.702Z,29.15
2022-08-19T14:48:57.049Z,29.08
2022-08-19T14:51:28.478Z,29.19
2022-08-19T14:53:55.045Z,29.22
2022-08-19T14:56:25.125Z,29.22
2022-08-19T14:59:01.570Z,29.22
2022-08-19T15:01:28.201Z,29.28
2022-08-19T15:03:56.863Z,29.23
2022-08-19T15:06:24.988Z,29.18
2022-08-19T15:08:55.135Z,29.17
2022-08-19T15:11:25.018Z,29.23
2022-08-19T15:14:12.578Z,29.22
2022-08-19T15:16:42.578Z,29.26
2022-08-19T15:19:09.605Z,29.31
2022-08-19T15:21:37.528Z,29.25
2022-08-19T15:24:10.304Z,29.30
2022-08-19T15:26:40.025Z,29.24
2022-08-19T15:29:06.497Z,29.13
2022-08-19T15:31:37.974Z,29.10
2022-08-19T15:34:07.024Z,29.03
2022-08-19T15:36:35.221Z,28.99
2022-08-19T15:39:09.608Z,29.02
2022-08-19T15:41:40.854Z,28.94
2022-08-19T15:44:13.027Z,28.91
2022-08-19T15:46:44.661Z,28.89
2022-08-19T15:49:17.381Z,28.89
2022-08-19T15:51:46.630Z,28.83
2022-08-19T15:54:17.730Z,28.81
2022-08-19T15:57:03.090Z,28.77
2022-08-19T15:59:51.658Z,28.76
2022-08-19T16:02:39.323Z,28.71
2022-08-19T16:05:28.025Z,28.68
2022-08-19T16:07:56.062Z,28.62
2022-08-19T16:10:29.732Z,28.66
2022-08-19T16:13:09.615Z,28.57
2022-08-19T16:15:44.727Z,28.56
2022-08-19T16:18:14.779Z,28.54
2022-08-19T16:20:44.256Z,28.49
2022-08-19T16:23:11.045Z,28.51
2022-08-19T16:25:44.665Z,28.45
2022-08-19T16:28:15.519Z,28.41
2022-08-19T16:30:51.225Z,28.39
2022-08-19T16:33:22.706Z,28.38
2022-08-19T16:35:52.008Z,28.38
2022-08-19T16:38:27.852Z,28.42
2022-08-19T16:41:01.647Z,28.39
2022-08-19T16:43:30.664Z,28.30
2022-08-19T16:45:58.200Z,28.28
2022-08-19T16:48:30.453Z,28.24
2022-08-19T16:50:57.936Z,28.18
2022-08-19T16:53:29.184Z,28.14
2022-08-19T16:56:03.623Z,28.17
2022-08-19T16:58:33.970Z,28.19
2022-08-19T17:01:07.522Z,28.11
2022-08-19T17:03:36.372Z,28.13
2022-08-19T17:06:17.795Z,28.12
2022-08-19T17:08:51.925Z,28.11
2022-08-19T17:11:19.812Z,28.09
2022-08-19T17:14:08.664Z,28.01
2022-08-19T17:16:36.357Z,28.05
2022-08-19T17:19:06.688Z,28.02
2022-08-19T17:21:38.054Z,27.97
2022-08-19T17:24:05.529Z,28.00
2022-08-19T17:26:38.676Z,28.02
2022-08-19T17:29:05.834Z,28.04
2022-08-19T17:31:39.694Z,28.00
2022-08-19T17:34:06.153Z,28.01
2022-08-19T17:36:40.703Z,27.98
2022-08-19T17:39:07.140Z,27.91
2022-08-19T17:41:34.346Z,27.94
2022-08-19T17:44:02.370Z,27.86
2022-08-19T17:46:30.363Z,27.76
2022-08-19T17:48:57.689Z,27.75
2022-08-19T17:51:48.701Z,27.67
2022-08-19T17:54:19.689Z,27.64
2022-08-19T17:56:47.105Z,27.66
2022-08-19T17:59:14.608Z,27.65
2022-08-19T18:01:54.799Z,27.62
2022-08-19T18:04:25.871Z,27.56
2022-08-19T18:06:55.010Z,27.54
2022-08-19T18:09:27.627Z,27.45
2022-08-19T18:11:58.231Z,27.31
2022-08-19T18:14:34.413Z,27.15
2022-08-19T18:17:09.859Z,27.16
2022-08-19T18:19:41.910Z,27.16
2022-08-19T18:22:15.753Z,27.20
2022-08-19T18:24:42.248Z,27.17
2022-08-19T18:27:11.412Z,27.14
2022-08-19T18:29:46.771Z,27.15
2022-08-19T18:32:13.437Z,27.03
2022-08-19T18:34:46.752Z,26.99
2022-08-19T18:37:18.084Z,27.08
2022-08-19T18:40:05.992Z,27.11
2022-08-19T18:42:53.333Z,26.98
2022-08-19T18:45:38.347Z,26.79
2022-08-19T18:48:27.923Z,26.83
2022-08-19T18:50:57.193Z,26.69
2022-08-19T18:53:24.338Z,26.69
2022-08-19T18:55:54.423Z,26.57
2022-08-19T18:58:32.256Z,26.49
2022-08-19T19:01:02.609Z,26.46
2022-08-19T19:03:34.036Z,26.36
2022-08-19T19:06:04.465Z,26.33
2022-08-19T19:08:30.942Z,26.33
2022-08-19T19:11:05.772Z,26.36
2022-08-19T19:13:33.879Z,26.35
2022-08-19T19:16:11.770Z,26.39
2022-08-19T19:18:38.413Z,26.38
2022-08-19T19:21:11.797Z,26.36
2022-08-19T19:23:40.916Z,26.44
2022-08-19T19:26:16.813Z,26.39
2022-08-19T19:28:45.459Z,26.39
2022-08-19T19:31:26.497Z,26.34
2022-08-19T19:33:55.275Z,26.38
2022-08-19T19:36:23.224Z,26.29
2022-08-19T19:38:49.710Z,26.26
2022-08-19T19:41:23.311Z,26.33
2022-08-19T19:44:10.121Z,26.34
2022-08-19T19:46:43.464Z,26.32
2022-08-19T19:49:11.346Z,26.31
2022-08-19T19:51:41.706Z,26.29
2022-08-19T19:54:23.041Z,26.21
2022-08-19T19:56:50.256Z,26.09
2022-08-19T19:59:19.315Z,25.98
2022-08-19T20:01:47.851Z,25.86
2022-08-19T20:04:15.995Z,25.82
2022-08-19T20:06:45.771Z,25.81
2022-08-19T20:09:19.536Z,25.73
2022-08-19T20:11:58.270Z,25.65
2022-08-19T20:14:31.464Z,25.62
2022-08-19T20:17:07.141Z,25.61
2022-08-19T20:19:38.166Z,25.60
2022-08-19T20:22:06.069Z,25.52
2022-08-19T20:24:35.263Z,25.42
2022-08-19T20:27:11.856Z,25.45
2022-08-19T20:29:44.352Z,25.36
2022-08-19T20:32:13.241Z,25.31
2022-08-19T20:34:40.686Z,25.24
2022-08-19T20:37:09.480Z,25.18
2022-08-19T20:39:37.072Z,25.18
2022-08-19T20:42:03.732Z,25.18
2022-08-19T20:44:30.235Z,25.12
2022-08-19T20:47:04.038Z,25.11
2022-08-19T20:49:30.688Z,25.16
2022-08-19T20:52:06.991Z,25.13
2022-08-19T20:54:36.261Z,25.07
2022-08-19T20:57:07.269Z,25.09
2022-08-19T20:59:43.365Z,25.07
2022-08-19T21:02:11.100Z,25.05
2022-08-19T21:04:37.527Z,25.02
2022-08-19T21:07:04.282Z,24.97
2022-08-19T21:09:32.337Z,24.93
2022-08-19T21:11:58.850Z,24.86
2022-08-19T21:14:27.544Z,24.81
2022-08-19T21:17:00.909Z,24.84
2022-08-19T21:19:29.610Z,24.82
2022-08-19T21:22:02.886Z,24.80
2022-08-19T21:24:39.683Z,24.75
2022-08-19T21:27:12.878Z,24.59
2022-08-19T21:29:40.518Z,24.56
2022-08-19T21:32:17.905Z,24.44
2022-08-19T21:34:46.361Z,24.31
2022-08-19T21:37:25.216Z,24.36
2022-08-19T21:39:53.268Z,24.33
2022-08-19T21:42:20.382Z,24.31
2022-08-19T21:44:46.852Z,24.19
2022-08-19T21:47:13.624Z,23.95
2022-08-19T21:49:40.115Z,23.96
2022-08-19T21:52:07.047Z,23.79
2022-08-19T21:54:38.880Z,23.48
2022-08-19T21:57:10.225Z,23.37
2022-08-19T21:59:39.779Z,23.22
2022-08-19T22:02:20.301Z,23.16
2022-08-19T22:04:47.798Z,23.01
2022-08-19T22:07:14.760Z,22.96
2022-08-19T22:09:42.761Z,22.86
2022-08-19T22:12:20.959Z,22.67
2022-08-19T22:14:58.045Z,22.58
2022-08-19T22:17:27.405Z,22.48
2022-08-19T22:19:55.933Z,22.31
2022-08-19T22:22:24.861Z,22.22
2022-08-19T22:24:52.437Z,22.20
2022-08-19T22:27:19.836Z,22.13
2022-08-19T22:29:46.446Z,22.10
2022-08-19T22:32:26.756Z,21.98
2022-08-19T22:34:58.571Z,21.96
2022-08-19T22:37:32.941Z,22.00
2022-08-19T22:40:03.278Z,21.89
2022-08-19T22:42:38.957Z,21.79
2022-08-19T22:47:41.983Z,21.76
2022-08-19T22:50:13.840Z,21.64
2022-08-19T22:52:51.770Z,21.57
2022-08-19T22:55:21.271Z,21.51
2022-08-19T22:57:53.408Z,21.45
2022-08-19T23:00:22.217Z,21.33
2022-08-19T23:02:51.825Z,21.26
2022-08-19T23:05:21.914Z,21.24
2022-08-19T23:07:52.507Z,21.16
2022-08-19T23:10:27.235Z,21.20
2022-08-19T23:13:15.987Z,21.16
2022-08-19T23:15:47.101Z,21.12
2022-08-19T23:18:13.913Z,21.11
2022-08-19T23:20:42.707Z,21.08
2022-08-19T23:23:12.513Z,21.06
2022-08-19T23:25:39.545Z,20.99
2022-08-19T23:28:24.565Z,20.93
2022-08-19T23:30:54.400Z,20.85
2022-08-19T23:33:42.920Z,20.83
2022-08-19T23:36:20.742Z,20.74
2022-08-19T23:38:55.969Z,20.75
2022-08-19T23:41:23.270Z,20.65
2022-08-19T23:43:51.456Z,20.62
2022-08-19T23:46:28.282Z,20.68
2022-08-19T23:48:56.052Z,20.60
2022-08-19T23:51:41.999Z,20.50
2022-08-19T23:54:08.486Z,20.41
2022-08-19T23:56:35.024Z,20.44
2022-08-19T23:59:08.042Z,20.49
